Time;durP1;ratioP1;P1;durP2;ratioP2;P2;SDS_P1;SDS_P2;PMS_P1;PMS_P2;Temp;Humidity;BMP_temperature;BMP_pressure;BME280_temperature;BME280_humidity;BME280_pressure;Samples;Min_cycle;Max_cycle;Signal;HPM_P1;HPM_P2
2021/12/06 00:01:29;;;;;;;6.47;4.97;;;;;;;;;;5027986;28;20208;-48
2021/12/06 00:04:01;;;;;;;6.97;4.93;;;;;;;;;;5031632;28;20227;-49
2021/12/06 00:06:27;;;;;;;5.30;4.57;;;;;;;;;;5027448;28;20176;-49
2021/12/06 00:08:54;;;;;;;5.57;5.00;;;;;;;;;;5033472;28;20187;-49
2021/12/06 00:11:20;;;;;;;5.78;5.18;;;;;;;;;;5030684;28;20184;-49
2021/12/06 00:13:47;;;;;;;6.40;5.35;;;;;;;;;;5025434;28;20270;-49
2021/12/06 00:16:17;;;;;;;5.28;4.72;;;;;;;;;;5033749;28;20188;-49
2021/12/06 00:18:43;;;;;;;5.63;4.97;;;;;;;;;;5036219;28;20562;-49
2021/12/06 00:21:10;;;;;;;6.15;4.68;;;;;;;;;;5031243;28;20594;-49
2021/12/06 00:23:36;;;;;;;5.05;4.55;;;;;;;;;;5036630;28;20253;-50
2021/12/06 00:26:02;;;;;;;5.95;4.75;;;;;;;;;;5032729;28;20183;-49
2021/12/06 00:28:28;;;;;;;6.18;4.90;;;;;;;;;;5036608;28;20190;-48
2021/12/06 00:30:56;;;;;;;5.43;4.82;;;;;;;;;;5031803;28;20568;-49
2021/12/06 00:33:22;;;;;;;4.95;4.45;;;;;;;;;;5036438;28;20567;-49
2021/12/06 00:35:48;;;;;;;5.05;4.47;;;;;;;;;;5034273;28;20195;-48
2021/12/06 00:38:14;;;;;;;5.30;4.80;;;;;;;;;;5037268;28;20476;-49
2021/12/06 00:40:42;;;;;;;5.07;4.57;;;;;;;;;;5033057;28;20548;-49
2021/12/06 00:43:08;;;;;;;5.60;4.47;;;;;;;;;;5036242;28;20257;-49
2021/12/06 00:45:35;;;;;;;6.13;5.18;;;;;;;;;;5034743;28;20172;-49
2021/12/06 00:48:01;;;;;;;7.30;4.85;;;;;;;;;;5036264;28;20191;-49
2021/12/06 00:50:28;;;;;;;5.82;4.93;;;;;;;;;;5031703;28;20179;-48
2021/12/06 00:52:55;;;;;;;5.63;4.70;;;;;;;;;;5031460;28;20222;-49
2021/12/06 00:55:22;;;;;;;4.85;4.35;;;;;;;;;;5030515;28;20185;-49
2021/12/06 00:57:49;;;;;;;6.15;4.68;;;;;;;;;;5035670;28;20688;-49
2021/12/06 01:00:17;;;;;;;5.03;4.25;;;;;;;;;;5019179;28;20194;-49
2021/12/06 01:02:44;;;;;;;5.07;4.57;;;;;;;;;;5031084;28;20278;-49
2021/12/06 01:05:10;;;;;;;4.93;4.47;;;;;;;;;;5032957;28;20203;-48
2021/12/06 01:07:36;;;;;;;5.13;4.40;;;;;;;;;;5035819;28;20191;-49
2021/12/06 01:10:04;;;;;;;5.40;4.32;;;;;;;;;;5033702;28;20180;-48
2021/12/06 01:12:30;;;;;;;5.03;4.57;;;;;;;;;;5035882;28;20214;-49
2021/12/06 01:14:56;;;;;;;5.20;4.70;;;;;;;;;;5032659;28;20223;-49
2021/12/06 01:17:22;;;;;;;4.72;4.32;;;;;;;;;;5033844;28;20175;-48
2021/12/06 01:19:48;;;;;;;5.45;4.90;;;;;;;;;;5029808;28;20187;-49
2021/12/06 01:24:47;;;;;;;4.68;4.28;;;;;;;;;;5035021;28;20513;-49
2021/12/06 01:28:18;;;;;;;4.60;4.13;;;;;;;;;;5033303;28;20180;-49
2021/12/06 01:30:23;;;;;;;5.13;4.30;;;;;;;;;;5025775;28;20275;-49
2021/12/06 01:41:03;;;;;;;5.57;4.47;;;;;;;;;;5027197;28;20648;-50
2021/12/06 01:43:29;;;;;;;5.03;4.50;;;;;;;;;;5033959;28;20294;-50
2021/12/06 01:45:55;;;;;;;4.60;4.20;;;;;;;;;;5027817;28;20283;-49
2021/12/06 01:48:21;;;;;;;5.25;4.68;;;;;;;;;;5033645;28;20504;-49
2021/12/06 01:50:47;;;;;;;4.85;4.35;;;;;;;;;;5033925;28;20219;-49
2021/12/06 01:53:13;;;;;;;4.65;4.20;;;;;;;;;;5034569;28;20258;-48
2021/12/06 01:55:40;;;;;;;5.28;4.78;;;;;;;;;;5031783;28;20192;-48
2021/12/06 01:58:07;;;;;;;4.68;4.18;;;;;;;;;;5034733;28;20456;-48
2021/12/06 02:00:39;;;;;;;4.72;4.22;;;;;;;;;;5030812;28;20507;-49
2021/12/06 02:03:06;;;;;;;4.93;4.43;;;;;;;;;;5031655;28;20235;-49
2021/12/06 02:05:32;;;;;;;5.22;4.68;;;;;;;;;;5031777;28;20222;-49
2021/12/06 02:07:59;;;;;;;4.93;4.32;;;;;;;;;;5031484;28;20192;-49
2021/12/06 02:10:27;;;;;;;5.05;4.30;;;;;;;;;;5031218;28;20176;-49
2021/12/06 02:12:54;;;;;;;4.80;4.30;;;;;;;;;;5033060;28;20172;-48
2021/12/06 02:18:39;;;;;;;5.82;4.70;;;;;;;;;;5035313;28;21026;-49
2021/12/06 02:21:02;;;;;;;4.72;3.97;;;;;;;;;;5021296;28;20199;-50
2021/12/06 02:23:28;;;;;;;4.95;4.45;;;;;;;;;;5029393;28;20606;-50
2021/12/06 02:25:55;;;;;;;4.90;4.03;;;;;;;;;;5033917;28;20179;-49
2021/12/06 02:28:21;;;;;;;4.70;4.18;;;;;;;;;;5034326;28;20618;-49
2021/12/06 02:30:47;;;;;;;5.25;4.32;;;;;;;;;;5030302;28;20180;-50
2021/12/06 02:33:13;;;;;;;4.90;4.32;;;;;;;;;;5032949;28;20180;-49
2021/12/06 02:35:40;;;;;;;5.72;4.45;;;;;;;;;;5032566;28;20192;-48
2021/12/06 02:38:07;;;;;;;5.82;4.45;;;;;;;;;;5031810;28;20238;-48
2021/12/06 02:40:34;;;;;;;5.13;4.47;;;;;;;;;;5031898;28;20179;-49
2021/12/06 02:43:01;;;;;;;4.82;3.85;;;;;;;;;;5030110;28;20191;-49
2021/12/06 02:45:28;;;;;;;4.43;4.03;;;;;;;;;;5026577;28;20296;-49
2021/12/06 02:47:56;;;;;;;5.03;4.53;;;;;;;;;;5034208;28;20647;-50
2021/12/06 02:50:25;;;;;;;5.25;4.20;;;;;;;;;;5031471;28;20463;-49
2021/12/06 02:52:51;;;;;;;4.63;4.22;;;;;;;;;;5033069;28;20210;-49
2021/12/06 02:57:55;;;;;;;4.47;4.07;;;;;;;;;;5033387;28;20308;-49
2021/12/06 03:00:21;;;;;;;4.80;4.18;;;;;;;;;;5018645;28;20176;-50
2021/12/06 03:02:47;;;;;;;3.95;3.58;;;;;;;;;;5031832;28;20180;-49
2021/12/06 03:05:13;;;;;;;4.60;3.80;;;;;;;;;;5032960;28;20455;-48
2021/12/06 03:07:39;;;;;;;5.45;4.18;;;;;;;;;;5033407;28;20237;-49
2021/12/06 03:10:09;;;;;;;5.38;4.35;;;;;;;;;;5019269;28;20180;-48
2021/12/06 03:12:36;;;;;;;4.43;4.03;;;;;;;;;;5033152;28;20882;-49
2021/12/06 03:15:03;;;;;;;4.82;4.00;;;;;;;;;;5030088;28;20234;-49
2021/12/06 03:17:30;;;;;;;4.57;4.13;;;;;;;;;;5032385;28;20176;-48
2021/12/06 03:19:56;;;;;;;4.93;4.03;;;;;;;;;;5019856;28;20200;-49
2021/12/06 03:22:23;;;;;;;4.15;3.75;;;;;;;;;;5023321;28;20195;-49
2021/12/06 03:24:50;;;;;;;4.55;4.00;;;;;;;;;;5032446;28;20238;-49
2021/12/06 03:27:17;;;;;;;3.65;3.25;;;;;;;;;;5034123;28;20229;-49
2021/12/06 03:29:43;;;;;;;4.50;3.95;;;;;;;;;;5025002;28;20498;-49
2021/12/06 03:32:09;;;;;;;3.50;3.20;;;;;;;;;;5026613;28;20223;-49
2021/12/06 03:34:35;;;;;;;5.07;4.07;;;;;;;;;;5033246;28;20363;-49
2021/12/06 03:37:02;;;;;;;4.55;3.53;;;;;;;;;;5024224;28;20266;-49
2021/12/06 03:39:30;;;;;;;3.78;3.38;;;;;;;;;;5024150;28;20196;-49
2021/12/06 03:41:59;;;;;;;3.97;3.53;;;;;;;;;;5030031;28;20454;-48
2021/12/06 03:44:26;;;;;;;5.00;4.00;;;;;;;;;;5032903;28;20245;-49
2021/12/06 03:46:54;;;;;;;5.85;3.97;;;;;;;;;;5031570;28;20259;-49
2021/12/06 03:49:20;;;;;;;5.13;4.15;;;;;;;;;;5026689;28;20567;-49
2021/12/06 03:51:47;;;;;;;4.55;3.97;;;;;;;;;;5026872;28;20194;-48
2021/12/06 03:54:16;;;;;;;4.40;3.78;;;;;;;;;;5031947;28;20275;-48
2021/12/06 03:56:42;;;;;;;4.35;3.53;;;;;;;;;;5031766;28;20176;-49
2021/12/06 03:59:09;;;;;;;5.32;3.75;;;;;;;;;;5025073;28;20183;-48
2021/12/06 04:01:35;;;;;;;3.95;3.55;;;;;;;;;;5026808;28;20287;-49
2021/12/06 04:04:02;;;;;;;5.45;4.03;;;;;;;;;;5030809;28;20218;-49
2021/12/06 04:06:28;;;;;;;5.45;3.67;;;;;;;;;;5029194;28;20180;-48
2021/12/06 04:08:54;;;;;;;4.45;3.63;;;;;;;;;;5027860;28;20255;-48
2021/12/06 04:11:22;;;;;;;4.53;3.53;;;;;;;;;;5028151;28;20179;-49
2021/12/06 04:13:48;;;;;;;6.38;4.10;;;;;;;;;;5031407;28;20530;-49
2021/12/06 04:16:14;;;;;;;5.00;3.85;;;;;;;;;;5028606;28;20184;-51
2021/12/06 04:18:40;;;;;;;5.05;4.10;;;;;;;;;;5032095;28;20546;-50
2021/12/06 04:21:09;;;;;;;4.05;3.60;;;;;;;;;;5027706;28;20560;-49
2021/12/06 04:23:36;;;;;;;4.05;3.60;;;;;;;;;;5025663;28;20200;-49
2021/12/06 04:26:02;;;;;;;4.20;3.70;;;;;;;;;;5024708;28;20184;-49
2021/12/06 04:28:30;;;;;;;4.97;3.83;;;;;;;;;;5024862;28;20176;-49
2021/12/06 04:30:56;;;;;;;4.35;3.72;;;;;;;;;;5027542;28;20607;-49
2021/12/06 04:33:22;;;;;;;4.55;3.70;;;;;;;;;;5031957;28;20581;-49
2021/12/06 04:35:48;;;;;;;5.10;3.75;;;;;;;;;;5029594;28;20547;-49
2021/12/06 04:38:14;;;;;;;4.38;3.67;;;;;;;;;;5027705;28;20544;-49
2021/12/06 04:40:41;;;;;;;4.82;3.70;;;;;;;;;;5030273;28;20443;-49
2021/12/06 04:43:07;;;;;;;3.90;3.50;;;;;;;;;;5031341;28;20282;-49
2021/12/06 04:45:34;;;;;;;5.45;3.88;;;;;;;;;;5029393;28;20220;-50
2021/12/06 04:48:00;;;;;;;4.18;3.45;;;;;;;;;;5026863;28;20172;-49
2021/12/06 04:50:28;;;;;;;5.68;4.00;;;;;;;;;;5029624;28;20180;-50
2021/12/06 04:52:55;;;;;;;4.82;4.00;;;;;;;;;;5025332;28;20179;-49
2021/12/06 04:55:21;;;;;;;4.80;3.63;;;;;;;;;;5030951;28;20184;-49
2021/12/06 04:57:48;;;;;;;4.07;3.65;;;;;;;;;;5028087;28;20267;-49
2021/12/06 05:00:14;;;;;;;4.35;3.95;;;;;;;;;;5027917;28;20220;-49
2021/12/06 05:02:40;;;;;;;4.70;3.80;;;;;;;;;;5024682;28;20606;-49
2021/12/06 05:05:09;;;;;;;5.03;3.80;;;;;;;;;;5028257;28;20588;-49
2021/12/06 05:07:37;;;;;;;6.65;4.15;;;;;;;;;;5028463;28;20211;-49
2021/12/06 05:10:04;;;;;;;5.25;3.75;;;;;;;;;;5032174;28;20198;-49
2021/12/06 05:12:31;;;;;;;6.32;3.65;;;;;;;;;;5036847;28;20183;-49
2021/12/06 05:14:57;;;;;;;5.43;3.75;;;;;;;;;;5029453;28;20265;-50
2021/12/06 05:17:24;;;;;;;5.13;3.72;;;;;;;;;;5031676;28;20192;-50
2021/12/06 05:19:50;;;;;;;6.40;4.18;;;;;;;;;;5028213;28;20252;-47
2021/12/06 05:22:16;;;;;;;15.38;5.70;;;;;;;;;;5030572;28;20627;-58
2021/12/06 05:24:42;;;;;;;21.38;7.57;;;;;;;;;;5026596;28;20220;-59
2021/12/06 05:27:08;;;;;;;15.85;6.78;;;;;;;;;;5035854;28;20176;-49
2021/12/06 05:29:34;;;;;;;20.23;6.72;;;;;;;;;;5028669;28;20211;-50
2021/12/06 05:32:01;;;;;;;17.08;6.25;;;;;;;;;;5033117;28;20187;-49
2021/12/06 05:34:34;;;;;;;17.98;6.65;;;;;;;;;;5034976;28;20180;-49
2021/12/06 05:37:00;;;;;;;15.25;6.57;;;;;;;;;;5025181;28;20234;-50
2021/12/06 05:39:30;;;;;;;13.60;5.90;;;;;;;;;;5032854;28;20184;-49
2021/12/06 05:41:57;;;;;;;17.35;7.20;;;;;;;;;;5029035;28;20515;-49
2021/12/06 05:44:23;;;;;;;16.63;6.63;;;;;;;;;;5035283;28;20196;-50
2021/12/06 05:46:49;;;;;;;15.63;6.60;;;;;;;;;;5033642;28;20901;-50
2021/12/06 05:49:15;;;;;;;16.77;6.30;;;;;;;;;;5028133;28;20275;-49
2021/12/06 05:51:42;;;;;;;14.32;6.18;;;;;;;;;;5034081;28;20519;-50
2021/12/06 05:54:08;;;;;;;12.10;6.43;;;;;;;;;;5034601;28;20175;-50
2021/12/06 05:56:34;;;;;;;13.30;6.30;;;;;;;;;;5035073;28;20190;-49
2021/12/06 05:59:00;;;;;;;13.63;6.07;;;;;;;;;;5034376;28;20246;-50
2021/12/06 06:01:29;;;;;;;14.65;5.78;;;;;;;;;;5029305;28;20203;-50
2021/12/06 06:04:00;;;;;;;17.15;6.55;;;;;;;;;;5035034;28;20504;-50
2021/12/06 06:06:26;;;;;;;14.45;6.88;;;;;;;;;;5034243;28;20458;-50
2021/12/06 06:08:52;;;;;;;14.48;6.43;;;;;;;;;;5030794;28;20176;-50
2021/12/06 06:11:18;;;;;;;17.63;6.50;;;;;;;;;;5030143;28;20187;-49
2021/12/06 06:13:44;;;;;;;12.07;6.25;;;;;;;;;;5034809;28;20190;-50
2021/12/06 06:16:10;;;;;;;11.07;5.32;;;;;;;;;;5032089;28;20264;-50
2021/12/06 06:18:36;;;;;;;11.15;6.10;;;;;;;;;;5034551;28;20590;-50
2021/12/06 06:21:02;;;;;;;13.30;5.90;;;;;;;;;;5029676;28;20270;-49
2021/12/06 06:23:28;;;;;;;12.18;5.88;;;;;;;;;;5033700;28;20180;-49
2021/12/06 06:25:55;;;;;;;12.07;5.93;;;;;;;;;;5031143;28;20180;-50
2021/12/06 06:28:21;;;;;;;13.88;6.32;;;;;;;;;;5024023;28;20175;-50
2021/12/06 06:30:47;;;;;;;11.48;6.10;;;;;;;;;;5031574;28;20215;-49
2021/12/06 06:33:13;;;;;;;13.50;6.43;;;;;;;;;;5035003;28;20574;-50
2021/12/06 06:35:39;;;;;;;12.70;6.75;;;;;;;;;;5034523;28;20168;-50
2021/12/06 06:38:06;;;;;;;12.73;6.43;;;;;;;;;;5021046;28;20196;-50
2021/12/06 06:40:32;;;;;;;8.63;5.75;;;;;;;;;;5017191;28;20270;-49
2021/12/06 06:42:58;;;;;;;11.88;6.72;;;;;;;;;;5031947;28;20202;-50
2021/12/06 06:45:25;;;;;;;12.55;6.10;;;;;;;;;;5030832;28;20231;-50
2021/12/06 06:47:51;;;;;;;13.02;6.78;;;;;;;;;;5033363;28;20188;-49
2021/12/06 06:50:18;;;;;;;11.40;6.25;;;;;;;;;;5031953;28;20207;-50
2021/12/06 06:52:45;;;;;;;14.23;6.00;;;;;;;;;;5029315;28;20448;-49
2021/12/06 06:55:11;;;;;;;14.40;6.32;;;;;;;;;;5032835;28;20726;-49
2021/12/06 06:57:38;;;;;;;10.50;6.25;;;;;;;;;;5033440;28;20211;-49
2021/12/06 07:00:06;;;;;;;12.27;6.30;;;;;;;;;;5031917;28;20586;-50
2021/12/06 07:02:32;;;;;;;11.50;6.05;;;;;;;;;;5033724;28;20282;-50
2021/12/06 07:04:58;;;;;;;12.52;6.18;;;;;;;;;;5032321;28;20283;-50
2021/12/06 07:07:24;;;;;;;9.60;5.88;;;;;;;;;;5025472;28;20184;-49
2021/12/06 07:09:50;;;;;;;10.82;5.97;;;;;;;;;;5031608;28;20185;-49
2021/12/06 07:12:18;;;;;;;10.45;5.82;;;;;;;;;;5031296;28;20902;-49
2021/12/06 07:14:45;;;;;;;10.05;5.82;;;;;;;;;;5033229;28;20167;-50
2021/12/06 07:17:11;;;;;;;11.32;5.88;;;;;;;;;;5032037;28;20219;-50
2021/12/06 07:19:37;;;;;;;8.57;5.20;;;;;;;;;;5033730;28;20191;-50
2021/12/06 07:22:04;;;;;;;9.77;5.93;;;;;;;;;;5030746;28;20180;-49
2021/12/06 07:24:30;;;;;;;11.15;5.97;;;;;;;;;;5032381;28;20234;-49
2021/12/06 07:26:56;;;;;;;9.95;5.97;;;;;;;;;;5031479;28;20192;-49
2021/12/06 07:29:23;;;;;;;12.65;5.88;;;;;;;;;;5031823;28;20198;-50
2021/12/06 07:31:48;;;;;;;9.85;5.93;;;;;;;;;;5026962;28;20604;-49
2021/12/06 07:34:14;;;;;;;9.45;5.53;;;;;;;;;;5030252;28;20184;-50
2021/12/06 07:36:40;;;;;;;9.57;5.13;;;;;;;;;;5031828;28;20658;-49
2021/12/06 07:39:07;;;;;;;8.02;5.18;;;;;;;;;;5034263;28;20517;-50
2021/12/06 07:41:33;;;;;;;9.77;5.57;;;;;;;;;;5025935;28;20195;-49
2021/12/06 07:44:02;;;;;;;9.68;5.47;;;;;;;;;;5033100;28;20207;-49
2021/12/06 07:46:29;;;;;;;12.20;5.75;;;;;;;;;;5032441;28;20589;-49
2021/12/06 07:48:55;;;;;;;9.93;5.55;;;;;;;;;;5028086;28;20231;-50
2021/12/06 07:51:22;;;;;;;9.30;5.60;;;;;;;;;;5029830;28;20182;-49
2021/12/06 07:53:49;;;;;;;10.30;5.80;;;;;;;;;;5031716;28;20188;-49
2021/12/06 07:56:15;;;;;;;9.25;5.82;;;;;;;;;;5030998;28;20188;-50
2021/12/06 07:58:41;;;;;;;7.78;5.22;;;;;;;;;;5033069;28;20259;-49
2021/12/06 08:01:07;;;;;;;10.25;5.57;;;;;;;;;;5031841;28;20195;-49
2021/12/06 08:03:33;;;;;;;10.05;5.85;;;;;;;;;;5029676;28;20198;-50
2021/12/06 08:06:00;;;;;;;7.47;5.15;;;;;;;;;;5025763;28;20208;-50
2021/12/06 08:08:28;;;;;;;7.55;5.25;;;;;;;;;;5025620;28;20263;-49
2021/12/06 08:10:58;;;;;;;8.93;5.53;;;;;;;;;;5012955;28;20179;-49
2021/12/06 08:13:26;;;;;;;8.90;5.30;;;;;;;;;;5030343;28;20190;-49
2021/12/06 08:15:53;;;;;;;9.60;5.50;;;;;;;;;;5032847;28;20200;-50
2021/12/06 08:18:19;;;;;;;8.35;5.60;;;;;;;;;;5016419;28;20199;-50
2021/12/06 08:20:45;;;;;;;7.88;5.18;;;;;;;;;;5020448;28;20195;-50
2021/12/06 08:23:12;;;;;;;9.13;5.20;;;;;;;;;;5020806;28;20217;-50
2021/12/06 08:25:38;;;;;;;7.60;5.20;;;;;;;;;;5025607;28;20583;-50
2021/12/06 08:28:05;;;;;;;10.07;5.60;;;;;;;;;;5020664;28;20519;-50
2021/12/06 08:30:31;;;;;;;8.20;5.28;;;;;;;;;;5024178;28;20460;-50
2021/12/06 08:32:59;;;;;;;7.28;5.15;;;;;;;;;;5024994;28;20286;-49
2021/12/06 08:35:26;;;;;;;9.38;5.32;;;;;;;;;;5030946;28;20187;-49
2021/12/06 08:37:52;;;;;;;9.02;4.65;;;;;;;;;;5028548;28;20176;-49
2021/12/06 08:40:18;;;;;;;7.75;5.10;;;;;;;;;;5037533;28;20840;-49
2021/12/06 08:42:45;;;;;;;6.90;4.80;;;;;;;;;;5029714;28;20219;-50
2021/12/06 08:45:11;;;;;;;7.30;5.05;;;;;;;;;;5034803;28;20315;-49
2021/12/06 08:47:37;;;;;;;7.10;4.72;;;;;;;;;;5024228;28;20195;-50
2021/12/06 08:50:05;;;;;;;5.97;5.03;;;;;;;;;;5021642;28;20318;-50
2021/12/06 08:52:31;;;;;;;6.55;4.43;;;;;;;;;;5025601;28;20210;-50
2021/12/06 08:54:57;;;;;;;6.38;4.60;;;;;;;;;;5027097;28;20197;-50
2021/12/06 08:57:23;;;;;;;8.13;5.00;;;;;;;;;;5033047;28;20180;-50
2021/12/06 08:59:49;;;;;;;6.80;4.85;;;;;;;;;;5028590;28;20559;-50
2021/12/06 09:02:15;;;;;;;6.03;4.40;;;;;;;;;;5034311;28;20180;-49
2021/12/06 09:04:41;;;;;;;5.28;4.43;;;;;;;;;;5031168;28;20200;-50
2021/12/06 09:07:12;;;;;;;5.50;4.30;;;;;;;;;;5028611;28;20237;-50
2021/12/06 09:09:46;;;;;;;6.68;4.90;;;;;;;;;;5028256;28;20183;-50
2021/12/06 09:12:17;;;;;;;5.80;4.45;;;;;;;;;;5031860;28;20255;-50
2021/12/06 09:14:44;;;;;;;8.32;4.45;;;;;;;;;;5032237;28;20194;-50
2021/12/06 09:17:10;;;;;;;5.13;4.25;;;;;;;;;;5029820;28;20208;-50
2021/12/06 09:19:36;;;;;;;5.35;4.20;;;;;;;;;;5035887;28;20214;-49
2021/12/06 09:22:03;;;;;;;6.25;4.28;;;;;;;;;;5034557;28;20560;-50
2021/12/06 09:24:29;;;;;;;6.07;4.57;;;;;;;;;;5033138;28;20617;-50
2021/12/06 09:26:55;;;;;;;6.47;4.00;;;;;;;;;;5035321;28;20180;-50
2021/12/06 09:29:24;;;;;;;6.53;4.28;;;;;;;;;;5034765;28;20802;-49
2021/12/06 09:31:50;;;;;;;6.78;4.28;;;;;;;;;;5032246;28;20185;-49
2021/12/06 09:34:16;;;;;;;5.63;4.28;;;;;;;;;;5035534;28;20766;-50
2021/12/06 09:36:42;;;;;;;5.60;3.90;;;;;;;;;;5029632;28;20267;-49
2021/12/06 09:39:09;;;;;;;6.05;3.97;;;;;;;;;;5028970;28;20266;-49
2021/12/06 09:41:35;;;;;;;5.53;3.88;;;;;;;;;;5027886;28;20222;-49
2021/12/06 09:44:02;;;;;;;5.30;3.88;;;;;;;;;;5030155;28;21018;-50
2021/12/06 09:46:34;;;;;;;5.22;4.40;;;;;;;;;;5020584;28;20969;-50
2021/12/06 09:49:03;;;;;;;5.85;4.63;;;;;;;;;;5034911;28;20207;-49
2021/12/06 09:51:29;;;;;;;5.95;4.00;;;;;;;;;;5032644;28;20187;-50
2021/12/06 09:53:57;;;;;;;6.13;4.45;;;;;;;;;;5029043;28;20187;-49
2021/12/06 09:56:26;;;;;;;6.15;4.13;;;;;;;;;;5032153;28;20180;-49
2021/12/06 09:58:52;;;;;;;4.38;3.90;;;;;;;;;;5029853;28;20190;-49
2021/12/06 10:01:25;;;;;;;6.35;4.60;;;;;;;;;;5031909;28;20192;-51
2021/12/06 10:03:53;;;;;;;5.75;3.85;;;;;;;;;;5030361;28;20652;-49
2021/12/06 10:06:20;;;;;;;4.93;4.10;;;;;;;;;;5028667;28;20188;-49
2021/12/06 10:08:47;;;;;;;5.03;4.03;;;;;;;;;;5034558;28;20196;-49
2021/12/06 10:11:14;;;;;;;4.43;3.92;;;;;;;;;;5031284;28;20307;-50
2021/12/06 10:13:40;;;;;;;4.82;4.05;;;;;;;;;;5026618;28;20176;-49
2021/12/06 10:16:07;;;;;;;5.25;4.00;;;;;;;;;;5031543;28;20279;-49
2021/12/06 10:18:33;;;;;;;4.45;3.95;;;;;;;;;;5029813;28;20630;-49
2021/12/06 10:20:59;;;;;;;5.43;4.20;;;;;;;;;;5026783;28;20183;-49
2021/12/06 10:23:25;;;;;;;4.45;4.05;;;;;;;;;;5031403;28;20254;-49
2021/12/06 10:25:52;;;;;;;4.20;3.80;;;;;;;;;;5033348;28;20195;-49
2021/12/06 10:28:20;;;;;;;5.63;4.07;;;;;;;;;;5030877;28;20187;-49
2021/12/06 10:30:50;;;;;;;6.32;4.22;;;;;;;;;;5019564;28;20271;-50
2021/12/06 10:33:18;;;;;;;4.90;4.20;;;;;;;;;;5030417;28;20183;-49
2021/12/06 10:35:46;;;;;;;5.82;4.00;;;;;;;;;;5016759;28;20188;-50
2021/12/06 10:38:18;;;;;;;5.18;4.00;;;;;;;;;;5028081;28;20180;-49
2021/12/06 10:40:44;;;;;;;5.38;4.13;;;;;;;;;;5026655;28;20569;-49
2021/12/06 10:43:11;;;;;;;5.40;4.28;;;;;;;;;;5031763;28;20210;-49
2021/12/06 10:45:42;;;;;;;5.43;3.95;;;;;;;;;;5032515;28;20591;-49
2021/12/06 10:48:14;;;;;;;5.30;3.63;;;;;;;;;;5033003;28;20226;-50
2021/12/06 10:51:00;;;;;;;4.38;3.80;;;;;;;;;;5016014;28;20204;-50
2021/12/06 10:53:26;;;;;;;4.55;3.85;;;;;;;;;;5030857;28;20188;-49
2021/12/06 10:55:54;;;;;;;5.50;4.03;;;;;;;;;;5031810;28;20191;-50
2021/12/06 10:58:22;;;;;;;5.47;4.07;;;;;;;;;;5030672;28;20239;-49
2021/12/06 11:01:02;;;;;;;4.57;4.05;;;;;;;;;;5032703;28;20179;-49
2021/12/06 11:03:29;;;;;;;5.40;3.97;;;;;;;;;;5033716;28;20187;-50
2021/12/06 11:06:03;;;;;;;5.70;4.40;;;;;;;;;;5031258;28;20175;-49
2021/12/06 11:08:30;;;;;;;4.88;3.95;;;;;;;;;;5031681;28;20188;-51
2021/12/06 11:11:01;;;;;;;4.68;3.78;;;;;;;;;;5033492;28;20585;-49
2021/12/06 11:13:29;;;;;;;4.70;4.15;;;;;;;;;;5032366;28;20190;-49
2021/12/06 11:15:58;;;;;;;4.70;4.20;;;;;;;;;;5033137;28;20183;-49
2021/12/06 11:18:35;;;;;;;5.03;3.65;;;;;;;;;;5030997;28;20778;-48
2021/12/06 11:21:02;;;;;;;5.15;4.05;;;;;;;;;;5032833;28;20554;-49
2021/12/06 11:23:28;;;;;;;5.05;3.88;;;;;;;;;;5033311;28;20447;-48
2021/12/06 11:25:55;;;;;;;4.90;3.90;;;;;;;;;;5021935;28;20199;-49
2021/12/06 11:28:29;;;;;;;4.80;3.97;;;;;;;;;;5031301;28;20183;-48
2021/12/06 11:31:02;;;;;;;4.82;3.90;;;;;;;;;;5029117;28;20191;-49
2021/12/06 11:33:30;;;;;;;4.63;4.05;;;;;;;;;;5031135;28;20196;-50
2021/12/06 11:35:56;;;;;;;5.32;3.80;;;;;;;;;;5030892;28;20285;-49
2021/12/06 11:38:22;;;;;;;4.22;3.75;;;;;;;;;;5024524;28;20180;-48
2021/12/06 11:40:48;;;;;;;5.03;4.07;;;;;;;;;;5031822;28;20901;-48
2021/12/06 11:43:17;;;;;;;4.35;3.70;;;;;;;;;;5031123;28;20552;-49
2021/12/06 11:45:46;;;;;;;5.32;3.72;;;;;;;;;;5024759;28;20294;-49
2021/12/06 11:48:16;;;;;;;4.68;4.00;;;;;;;;;;5031943;28;20184;-49
2021/12/06 11:50:45;;;;;;;4.20;3.80;;;;;;;;;;5025131;28;20196;-49
2021/12/06 11:53:12;;;;;;;4.22;3.83;;;;;;;;;;5028396;28;20187;-49
2021/12/06 11:55:43;;;;;;;4.40;4.00;;;;;;;;;;5032267;28;20183;-49
2021/12/06 11:58:21;;;;;;;4.30;3.90;;;;;;;;;;5031929;28;20180;-48
2021/12/06 12:00:47;;;;;;;5.43;3.90;;;;;;;;;;5021170;28;20192;-49
2021/12/06 12:03:13;;;;;;;4.47;3.72;;;;;;;;;;5022296;28;20191;-49
2021/12/06 12:05:39;;;;;;;4.90;4.05;;;;;;;;;;5028400;28;20760;-49
2021/12/06 12:08:05;;;;;;;4.63;3.83;;;;;;;;;;5032179;28;20183;-49
2021/12/06 12:10:34;;;;;;;4.43;4.03;;;;;;;;;;5026508;28;20191;-49
2021/12/06 12:13:00;;;;;;;4.32;3.92;;;;;;;;;;5035850;28;20183;-49
2021/12/06 12:15:26;;;;;;;5.22;4.47;;;;;;;;;;5035633;28;20616;-49
2021/12/06 12:17:53;;;;;;;4.38;3.95;;;;;;;;;;5031131;28;20230;-48
2021/12/06 12:20:23;;;;;;;5.72;4.60;;;;;;;;;;5034785;28;20586;-49
2021/12/06 12:22:50;;;;;;;5.35;4.18;;;;;;;;;;5021518;28;20195;-49
2021/12/06 12:25:26;;;;;;;4.95;4.30;;;;;;;;;;5029204;28;20200;-49
2021/12/06 12:30:18;;;;;;;5.35;4.70;;;;;;;;;;5035015;28;20206;-48
2021/12/06 12:32:44;;;;;;;4.97;4.18;;;;;;;;;;5034019;28;20479;-49
2021/12/06 12:35:11;;;;;;;5.10;4.60;;;;;;;;;;5036730;28;20273;-49
2021/12/06 12:37:38;;;;;;;4.47;3.90;;;;;;;;;;5033352;28;20599;-49
2021/12/06 12:40:10;;;;;;;5.07;4.50;;;;;;;;;;5037337;28;20179;-50
2021/12/06 12:42:39;;;;;;;5.18;4.65;;;;;;;;;;5033144;28;20203;-49
2021/12/06 12:45:06;;;;;;;5.22;4.35;;;;;;;;;;5034503;28;20218;-49
2021/12/06 12:47:33;;;;;;;4.70;4.20;;;;;;;;;;5035960;28;20551;-49
2021/12/06 12:50:11;;;;;;;4.63;4.18;;;;;;;;;;5033414;28;20203;-49
2021/12/06 12:52:38;;;;;;;4.57;4.05;;;;;;;;;;5036144;28;20218;-50
2021/12/06 12:55:21;;;;;;;4.68;4.18;;;;;;;;;;5036388;28;20206;-49
2021/12/06 12:57:47;;;;;;;5.35;4.57;;;;;;;;;;5026332;28;20188;-49
2021/12/06 13:00:18;;;;;;;5.82;4.10;;;;;;;;;;5033742;28;20191;-49
2021/12/06 13:02:45;;;;;;;5.05;4.10;;;;;;;;;;5025316;28;20203;-49
2021/12/06 13:05:16;;;;;;;4.70;4.20;;;;;;;;;;5036108;28;20286;-49
2021/12/06 13:07:42;;;;;;;5.40;4.50;;;;;;;;;;5030247;28;20203;-49
2021/12/06 13:10:27;;;;;;;4.85;4.35;;;;;;;;;;5035483;28;20495;-49
2021/12/06 13:13:26;;;;;;;5.10;4.38;;;;;;;;;;5029921;28;20183;-49
2021/12/06 13:16:01;;;;;;;6.00;4.65;;;;;;;;;;5017216;28;20237;-49
2021/12/06 13:18:30;;;;;;;5.43;4.63;;;;;;;;;;5033422;28;20226;-49
2021/12/06 13:20:56;;;;;;;4.63;4.07;;;;;;;;;;5035597;28;20187;-49
2021/12/06 13:23:26;;;;;;;4.88;4.38;;;;;;;;;;5026631;28;20181;-49
2021/12/06 13:26:06;;;;;;;5.00;4.50;;;;;;;;;;5035095;28;20195;-49
2021/12/06 13:28:52;;;;;;;4.63;4.22;;;;;;;;;;5034940;28;20217;-49
2021/12/06 13:31:25;;;;;;;5.38;4.25;;;;;;;;;;5028413;28;20172;-49
2021/12/06 13:33:51;;;;;;;4.35;3.95;;;;;;;;;;5034635;28;20182;-49
2021/12/06 13:36:36;;;;;;;5.20;4.53;;;;;;;;;;5033529;28;20636;-50
2021/12/06 13:39:05;;;;;;;4.65;4.22;;;;;;;;;;5027213;28;20176;-49
2021/12/06 13:41:32;;;;;;;4.55;4.15;;;;;;;;;;5031452;28;20184;-49
2021/12/06 13:44:09;;;;;;;4.43;4.03;;;;;;;;;;5035346;28;20231;-49
2021/12/06 13:46:36;;;;;;;5.35;4.82;;;;;;;;;;5034770;28;20190;-49
2021/12/06 13:49:04;;;;;;;4.70;4.18;;;;;;;;;;5030321;28;20192;-50
2021/12/06 13:51:30;;;;;;;5.15;4.53;;;;;;;;;;5024873;28;20203;-48
2021/12/06 13:53:58;;;;;;;4.45;4.03;;;;;;;;;;5027843;28;20216;-50
2021/12/06 13:57:00;;;;;;;4.38;3.97;;;;;;;;;;5029841;28;20526;-50
2021/12/06 13:59:27;;;;;;;4.97;4.47;;;;;;;;;;5066717;28;20185;-49
2021/12/06 14:01:56;;;;;;;5.00;4.47;;;;;;;;;;5039057;28;20264;-49
2021/12/06 14:04:23;;;;;;;4.70;4.10;;;;;;;;;;5025576;28;20594;-49
2021/12/06 14:06:55;;;;;;;4.88;4.25;;;;;;;;;;5032340;28;20194;-49
2021/12/06 14:09:31;;;;;;;4.85;4.07;;;;;;;;;;5034020;28;20191;-49
2021/12/06 14:12:00;;;;;;;4.93;4.13;;;;;;;;;;5033252;28;20258;-50
2021/12/06 14:14:26;;;;;;;4.60;4.20;;;;;;;;;;5032384;28;20196;-50
2021/12/06 14:16:53;;;;;;;4.50;4.10;;;;;;;;;;5022145;28;20196;-49
2021/12/06 14:19:23;;;;;;;6.03;4.30;;;;;;;;;;5029933;28;20266;-49
2021/12/06 14:21:51;;;;;;;5.50;4.60;;;;;;;;;;5031171;28;20199;-49
2021/12/06 14:24:17;;;;;;;5.93;4.78;;;;;;;;;;5034646;28;20290;-49
2021/12/06 14:26:45;;;;;;;5.05;4.30;;;;;;;;;;5028719;28;20291;-50
2021/12/06 14:29:21;;;;;;;4.60;4.20;;;;;;;;;;5020001;28;20187;-48
2021/12/06 14:31:49;;;;;;;5.07;4.38;;;;;;;;;;5033865;28;20179;-49
2021/12/06 14:34:15;;;;;;;5.22;4.47;;;;;;;;;;5033061;28;20187;-49
2021/12/06 14:36:43;;;;;;;4.95;4.45;;;;;;;;;;5029165;28;20447;-49
2021/12/06 14:39:10;;;;;;;5.30;4.55;;;;;;;;;;5033478;28;20212;-48
2021/12/06 14:41:48;;;;;;;5.43;4.63;;;;;;;;;;5028818;28;20461;-49
2021/12/06 14:44:28;;;;;;;6.32;4.45;;;;;;;;;;5034309;28;20313;-49
2021/12/06 14:46:54;;;;;;;5.95;4.78;;;;;;;;;;5033838;28;20594;-49
2021/12/06 14:49:20;;;;;;;5.78;4.78;;;;;;;;;;5023804;28;20327;-49
2021/12/06 14:51:47;;;;;;;5.80;4.80;;;;;;;;;;5034107;28;20274;-49
2021/12/06 14:54:21;;;;;;;4.78;4.20;;;;;;;;;;5020841;28;20263;-48
2021/12/06 14:56:57;;;;;;;5.25;3.97;;;;;;;;;;5033931;28;20184;-49
2021/12/06 14:59:26;;;;;;;5.95;4.75;;;;;;;;;;5033639;28;20183;-48
2021/12/06 15:01:54;;;;;;;4.85;4.35;;;;;;;;;;5025486;28;20598;-48
2021/12/06 15:04:43;;;;;;;5.97;5.03;;;;;;;;;;5032535;28;20228;-48